createdAt,value
2019-01-04T00:03:09.511Z,2.55
2019-01-04T00:07:14.576Z,2.49
2019-01-04T00:11:19.899Z,2.47
2019-01-04T00:15:25.024Z,2.52
2019-01-04T00:19:30.154Z,2.54
2019-01-04T00:23:35.205Z,2.50
2019-01-04T00:27:40.248Z,2.42
2019-01-04T00:31:45.314Z,2.48
2019-01-04T00:35:50.614Z,2.45
2019-01-04T00:39:55.775Z,2.40
2019-01-04T00:44:19.866Z,2.38
2019-01-04T00:48:24.957Z,2.40
2019-01-04T00:52:30.012Z,2.35
2019-01-04T00:57:02.136Z,2.40
2019-01-04T01:01:45.355Z,2.47
2019-01-04T01:06:28.570Z,2.37
2019-01-04T01:11:11.859Z,2.56
2019-01-04T01:15:46.513Z,2.40
2019-01-04T01:20:37.082Z,2.51
2019-01-04T01:25:20.272Z,2.44
2019-01-04T01:30:03.483Z,2.44
2019-01-04T01:39:46.934Z,2.39
2019-01-04T01:44:30.250Z,2.36
2019-01-04T01:48:42.157Z,2.33
2019-01-04T01:52:49.298Z,2.27
2019-01-04T01:56:54.389Z,2.33
2019-01-04T02:00:59.451Z,2.34
2019-01-04T02:05:04.872Z,2.40
2019-01-04T02:09:10.963Z,2.41
2019-01-04T02:13:16.025Z,2.45
2019-01-04T02:17:21.076Z,2.42
2019-01-04T02:21:26.514Z,2.57
2019-01-04T02:25:31.582Z,2.48
2019-01-04T02:29:36.626Z,2.59
2019-01-04T02:33:41.621Z,2.41
2019-01-04T02:37:46.705Z,2.39
2019-01-04T02:41:51.782Z,2.42
2019-01-04T02:45:56.800Z,2.39
2019-01-04T02:50:01.982Z,2.37
2019-01-04T02:54:07.025Z,2.32
2019-01-04T02:58:12.003Z,2.42
2019-01-04T03:02:17.139Z,2.45
2019-01-04T03:06:22.252Z,2.45
2019-01-04T03:10:27.299Z,2.57
2019-01-04T03:14:32.263Z,2.56
2019-01-04T03:18:37.207Z,2.58
2019-01-04T03:22:42.241Z,2.61
2019-01-04T03:26:47.297Z,2.59
2019-01-04T03:30:54.288Z,2.43
2019-01-04T03:35:18.177Z,2.42
2019-01-04T03:39:23.209Z,2.44
2019-01-04T03:43:28.327Z,2.37
2019-01-04T03:47:33.422Z,2.39
2019-01-04T03:56:28.223Z,2.36
2019-01-04T04:00:33.307Z,2.34
2019-01-04T04:04:38.435Z,2.34
2019-01-04T04:08:43.507Z,2.34
2019-01-04T04:12:48.553Z,2.35
2019-01-04T04:16:53.594Z,2.35
2019-01-04T04:20:58.653Z,2.34
2019-01-04T04:25:03.768Z,2.31
2019-01-04T04:29:08.830Z,2.28
2019-01-04T04:33:13.892Z,2.33
2019-01-04T04:37:18.863Z,2.30
2019-01-04T04:41:23.755Z,2.20
2019-01-04T04:45:28.774Z,2.13
2019-01-04T04:49:33.797Z,2.16
2019-01-04T04:53:38.760Z,2.11
2019-01-04T04:57:44.061Z,1.90
2019-01-04T05:01:49.141Z,1.90
2019-01-04T05:05:54.113Z,1.84
2019-01-04T05:09:59.309Z,1.82
2019-01-04T05:14:06.015Z,1.81
2019-01-04T05:18:11.046Z,1.75
2019-01-04T05:22:16.083Z,1.61
2019-01-04T05:26:21.163Z,1.62
2019-01-04T05:30:26.271Z,1.78
2019-01-04T05:34:31.276Z,2.11
2019-01-04T05:38:36.265Z,2.66
2019-01-04T05:42:41.288Z,2.02
2019-01-04T05:46:46.348Z,2.24
2019-01-04T05:50:51.428Z,2.29
2019-01-04T05:54:56.616Z,2.51
2019-01-04T05:59:01.701Z,2.72
2019-01-04T06:03:06.856Z,2.40
2019-01-04T06:07:11.830Z,2.40
2019-01-04T06:11:16.868Z,2.39
2019-01-04T06:15:22.014Z,2.35
2019-01-04T06:19:27.111Z,2.66
2019-01-04T06:23:32.181Z,2.42
2019-01-04T06:27:37.275Z,2.31
2019-01-04T06:31:42.322Z,2.17
2019-01-04T06:35:47.396Z,2.15
2019-01-04T06:39:52.399Z,2.06
2019-01-04T06:43:57.377Z,2.09
2019-01-04T06:48:02.319Z,2.00
2019-01-04T06:52:07.386Z,2.15
2019-01-04T06:56:12.457Z,2.06
2019-01-04T07:00:17.530Z,1.94
2019-01-04T07:04:22.607Z,1.93
2019-01-04T07:08:27.681Z,1.89
2019-01-04T07:12:32.668Z,1.90
2019-01-04T07:16:37.791Z,1.82
2019-01-04T07:24:59.623Z,1.99
2019-01-04T07:29:04.697Z,1.97
2019-01-04T07:33:09.861Z,2.02
2019-01-04T07:37:14.904Z,2.11
2019-01-04T07:41:20.047Z,2.21
2019-01-04T07:45:25.199Z,2.27
2019-01-04T07:49:30.602Z,2.31
2019-01-04T07:53:35.642Z,2.45
2019-01-04T07:57:40.766Z,2.34
2019-01-04T08:01:45.893Z,2.42
2019-01-04T08:05:52.188Z,2.45
2019-01-04T08:09:57.205Z,2.55
2019-01-04T08:14:02.253Z,2.49
2019-01-04T08:18:07.428Z,2.58
2019-01-04T08:22:12.501Z,2.64
2019-01-04T08:26:17.913Z,2.73
2019-01-04T08:30:22.961Z,2.61
2019-01-04T08:34:27.938Z,2.70
2019-01-04T08:38:32.982Z,2.71
2019-01-04T08:42:38.071Z,2.83
2019-01-04T08:46:43.199Z,2.80
2019-01-04T08:50:48.284Z,2.81
2019-01-04T08:54:53.372Z,2.96
2019-01-04T08:58:58.503Z,2.96
2019-01-04T09:03:03.561Z,2.93
2019-01-04T09:07:08.932Z,2.94
2019-01-04T09:11:13.958Z,2.91
2019-01-04T09:15:18.933Z,2.90
2019-01-04T09:19:23.993Z,2.99
2019-01-04T09:23:29.096Z,3.05
2019-01-04T09:27:34.506Z,3.14
2019-01-04T09:31:39.671Z,3.16
2019-01-04T09:35:44.805Z,3.20
2019-01-04T09:39:49.889Z,3.27
2019-01-04T09:43:55.079Z,3.35
2019-01-04T09:48:00.177Z,3.38
2019-01-04T09:52:05.415Z,3.52
2019-01-04T09:56:10.625Z,3.58
2019-01-04T10:00:15.740Z,3.61
2019-01-04T10:04:20.890Z,3.70
2019-01-04T10:08:29.705Z,3.74
2019-01-04T10:12:34.768Z,3.86
2019-01-04T10:16:39.859Z,3.90
2019-01-04T10:20:44.907Z,3.93
2019-01-04T10:24:49.955Z,3.96
2019-01-04T10:28:54.924Z,3.92
2019-01-04T10:32:59.989Z,3.90
2019-01-04T10:37:05.120Z,4.01
2019-01-04T10:41:10.167Z,4.05
2019-01-04T10:45:15.206Z,4.08
2019-01-04T10:49:20.159Z,4.30
2019-01-04T10:53:25.194Z,4.30
2019-01-04T10:57:30.264Z,4.26
2019-01-04T11:01:35.422Z,4.15
2019-01-04T11:05:40.307Z,4.06
2019-01-04T11:09:45.615Z,3.95
2019-01-04T11:13:50.644Z,3.89
2019-01-04T11:17:55.634Z,3.83
2019-01-04T11:22:38.810Z,3.85
2019-01-04T11:27:22.022Z,3.83
2019-01-04T11:31:49.594Z,3.84
2019-01-04T11:36:32.877Z,3.80
2019-01-04T11:41:03.248Z,3.91
2019-01-04T11:45:34.898Z,3.96
2019-01-04T11:50:18.088Z,3.95
2019-01-04T11:54:26.814Z,3.82
2019-01-04T11:58:31.862Z,3.79
2019-01-04T12:02:36.938Z,3.72
2019-01-04T12:06:42.031Z,3.72
2019-01-04T12:10:47.121Z,3.65
2019-01-04T12:15:02.279Z,3.70
2019-01-04T12:19:08.966Z,3.72
2019-01-04T12:23:14.084Z,3.72
2019-01-04T12:27:30.981Z,3.67
2019-01-04T12:31:36.024Z,3.63
2019-01-04T12:35:41.049Z,3.63
2019-01-04T12:39:46.181Z,3.68
2019-01-04T12:43:51.243Z,3.66
2019-01-04T12:47:56.284Z,3.66
2019-01-04T12:52:01.309Z,3.72
2019-01-04T12:56:06.368Z,3.68
2019-01-04T13:00:13.596Z,3.68
2019-01-04T13:04:19.592Z,3.68
2019-01-04T13:08:24.750Z,3.63
2019-01-04T13:12:30.772Z,3.69
2019-01-04T13:16:36.261Z,3.72
2019-01-04T13:20:41.296Z,3.70
2019-01-04T13:24:46.426Z,3.69
2019-01-04T13:28:51.430Z,3.67
2019-01-04T13:32:56.645Z,3.69
2019-01-04T13:37:01.840Z,3.68
2019-01-04T13:41:06.959Z,3.61
2019-01-04T13:45:12.278Z,3.58
2019-01-04T13:49:17.287Z,3.62
2019-01-04T13:53:22.383Z,3.43
2019-01-04T13:57:27.479Z,3.40
2019-01-04T14:01:32.499Z,3.42
2019-01-04T14:05:37.586Z,3.36
2019-01-04T14:09:42.739Z,3.47
2019-01-04T14:13:47.850Z,3.46
2019-01-04T14:17:52.951Z,3.43
2019-01-04T14:21:57.944Z,3.30
2019-01-04T14:26:02.946Z,3.30
2019-01-04T14:30:09.966Z,3.23
2019-01-04T14:34:15.120Z,3.16
2019-01-04T14:38:20.294Z,3.11
2019-01-04T14:42:25.495Z,3.14
2019-01-04T14:46:30.459Z,3.08
2019-01-04T14:50:35.574Z,3.03
2019-01-04T14:54:40.655Z,3.02
2019-01-04T14:58:45.743Z,2.95
2019-01-04T15:02:50.844Z,2.93
2019-01-04T15:11:26.742Z,2.92
2019-01-04T15:15:31.935Z,2.85
2019-01-04T15:19:37.030Z,2.82
2019-01-04T15:23:42.130Z,2.83
2019-01-04T15:27:47.155Z,2.85
2019-01-04T15:31:52.505Z,2.74
2019-01-04T15:35:57.579Z,2.75
2019-01-04T15:40:02.756Z,2.70
2019-01-04T15:44:07.847Z,2.71
2019-01-04T15:48:12.987Z,2.67
2019-01-04T15:52:18.190Z,2.67
2019-01-04T15:56:23.321Z,2.63
2019-01-04T16:00:28.392Z,2.64
2019-01-04T16:04:33.570Z,2.54
2019-01-04T16:08:38.572Z,2.55
2019-01-04T16:12:43.675Z,2.43
2019-01-04T16:16:48.818Z,2.43
2019-01-04T16:20:54.228Z,2.40
2019-01-04T16:24:59.238Z,2.43
2019-01-04T16:29:04.323Z,2.39
2019-01-04T16:33:09.429Z,2.34
2019-01-04T16:37:14.790Z,2.38
2019-01-04T16:41:19.986Z,2.32
2019-01-04T16:45:25.102Z,2.34
2019-01-04T16:54:02.357Z,2.27
2019-01-04T16:58:07.532Z,2.31
2019-01-04T17:02:32.073Z,2.26
2019-01-04T17:06:37.317Z,2.30
2019-01-04T17:10:42.647Z,2.22
2019-01-04T17:14:48.180Z,2.25
2019-01-04T17:18:53.093Z,2.26
2019-01-04T17:22:58.193Z,2.21
2019-01-04T17:27:03.357Z,2.21
2019-01-04T17:31:08.443Z,2.24
2019-01-04T17:35:13.637Z,2.15
2019-01-04T17:39:18.745Z,2.19
2019-01-04T17:43:23.867Z,2.11
2019-01-04T17:47:29.077Z,2.04
2019-01-04T17:51:34.494Z,2.08
2019-01-04T17:55:39.643Z,2.03
2019-01-04T17:59:44.699Z,2.03
2019-01-04T18:03:49.893Z,2.06
2019-01-04T18:07:54.953Z,2.00
2019-01-04T18:12:00.087Z,2.00
2019-01-04T18:16:05.210Z,1.96
2019-01-04T18:20:11.102Z,1.89
2019-01-04T18:28:41.985Z,1.91
2019-01-04T18:32:47.098Z,1.98
2019-01-04T18:36:55.230Z,1.89
2019-01-04T18:41:00.347Z,1.90
2019-01-04T18:45:08.125Z,1.97
2019-01-04T18:49:13.292Z,1.98
2019-01-04T18:53:18.418Z,1.98
2019-01-04T18:57:23.559Z,1.95
2019-01-04T19:01:28.668Z,1.92
2019-01-04T19:05:33.720Z,1.93
2019-01-04T19:09:40.437Z,1.96
2019-01-04T19:13:45.525Z,1.91
2019-01-04T19:17:50.546Z,1.96
2019-01-04T19:21:55.936Z,1.97
2019-01-04T19:30:17.312Z,1.98
2019-01-04T19:34:22.456Z,1.94
2019-01-04T19:38:27.624Z,1.97
2019-01-04T19:42:32.722Z,1.99
2019-01-04T19:46:37.817Z,1.99
2019-01-04T19:50:42.852Z,1.99
2019-01-04T19:54:47.857Z,2.00
2019-01-04T19:58:53.038Z,2.02
2019-01-04T20:02:58.089Z,2.06
2019-01-04T20:08:01.926Z,2.07
2019-01-04T20:13:04.261Z,2.11
2019-01-04T20:17:28.958Z,2.11
2019-01-04T20:21:53.064Z,2.09
2019-01-04T20:26:17.275Z,2.15
2019-01-04T20:30:41.471Z,2.16
2019-01-04T20:35:05.744Z,2.11
2019-01-04T20:39:29.958Z,2.08
2019-01-04T20:43:53.936Z,2.11
2019-01-04T20:48:18.407Z,2.13
2019-01-04T20:57:19.227Z,2.14
2019-01-04T21:01:43.270Z,2.19
2019-01-04T21:06:07.409Z,2.19
2019-01-04T21:10:31.552Z,2.26
2019-01-04T21:14:54.100Z,2.24
2019-01-04T21:19:18.122Z,2.24
2019-01-04T21:23:32.952Z,2.26
2019-01-04T21:27:57.073Z,2.28
2019-01-04T21:32:21.110Z,2.28
2019-01-04T21:36:45.150Z,2.23
2019-01-04T21:45:54.652Z,2.30
2019-01-04T21:50:18.766Z,2.31
2019-01-04T21:54:43.240Z,2.31
2019-01-04T21:59:03.386Z,2.35
2019-01-04T22:08:03.531Z,2.34
2019-01-04T22:12:27.515Z,2.37
2019-01-04T22:16:51.502Z,2.39
2019-01-04T22:21:15.596Z,2.39
2019-01-04T22:25:39.690Z,2.45
2019-01-04T22:30:03.674Z,2.45
2019-01-04T22:34:27.688Z,2.50
2019-01-04T22:38:53.392Z,2.53
2019-01-04T22:43:17.399Z,2.59
2019-01-04T22:47:41.461Z,2.56
2019-01-04T22:52:05.531Z,2.56
2019-01-04T22:56:29.592Z,2.58
2019-01-04T23:00:54.707Z,2.70
2019-01-04T23:05:18.771Z,2.74
2019-01-04T23:09:33.874Z,2.74
2019-01-04T23:13:57.883Z,2.80
2019-01-04T23:18:23.913Z,2.79
2019-01-04T23:22:59.631Z,2.87
2019-01-04T23:27:23.647Z,2.91
2019-01-04T23:31:47.735Z,2.95
2019-01-04T23:36:17.343Z,3.01
2019-01-04T23:40:37.385Z,2.99
2019-01-04T23:45:01.437Z,3.03
2019-01-04T23:49:25.502Z,3.05
2019-01-04T23:53:49.916Z,3.11
2019-01-04T23:58:14.095Z,3.13
